sensor_id;sensor_type;location;lat;lon;timestamp;pressure;altitude;pressure_sealevel;temperature;humidity
66430;BME280;53242;51.694;10.006;2023-04-28T00:02:02;99603.44;;;7.98;50.86
66430;BME280;53242;51.694;10.006;2023-04-28T00:04:24;99594.56;;;7.99;50.57
66430;BME280;53242;51.694;10.006;2023-04-28T00:06:47;99604.44;;;7.97;50.40
66430;BME280;53242;51.694;10.006;2023-04-28T00:09:09;99600.22;;;8.11;50.13
66430;BME280;53242;51.694;10.006;2023-04-28T00:11:32;99602.94;;;8.02;50.62
66430;BME280;53242;51.694;10.006;2023-04-28T00:13:54;99591.41;;;8.03;50.53
66430;BME280;53242;51.694;10.006;2023-04-28T00:16:17;99586.69;;;7.99;50.34
66430;BME280;53242;51.694;10.006;2023-04-28T00:18:39;99582.06;;;8.01;50.55
66430;BME280;53242;51.694;10.006;2023-04-28T00:21:02;99581.06;;;8.02;50.41
66430;BME280;53242;51.694;10.006;2023-04-28T00:23:24;99583.97;;;8.07;50.25
66430;BME280;53242;51.694;10.006;2023-04-28T00:25:51;99590.22;;;8.06;50.89
66430;BME280;53242;51.694;10.006;2023-04-28T00:28:13;99587.31;;;8.01;50.60
66430;BME280;53242;51.694;10.006;2023-04-28T00:30:36;99579.41;;;8.01;50.74
66430;BME280;53242;51.694;10.006;2023-04-28T00:32:58;99569.94;;;8.00;50.60
66430;BME280;53242;51.694;10.006;2023-04-28T00:35:21;99562.38;;;7.97;50.92
66430;BME280;53242;51.694;10.006;2023-04-28T00:37:43;99573.06;;;7.95;50.83
66430;BME280;53242;51.694;10.006;2023-04-28T00:40:06;99571.03;;;7.82;50.94
66430;BME280;53242;51.694;10.006;2023-04-28T00:42:29;99571.78;;;7.91;51.24
66430;BME280;53242;51.694;10.006;2023-04-28T00:44:51;99569.84;;;7.85;51.38
66430;BME280;53242;51.694;10.006;2023-04-28T00:47:16;99565.66;;;7.99;50.62
66430;BME280;53242;51.694;10.006;2023-04-28T00:49:39;99563.66;;;8.01;50.85
66430;BME280;53242;51.694;10.006;2023-04-28T00:52:04;99557.41;;;7.79;51.50
66430;BME280;53242;51.694;10.006;2023-04-28T00:54:27;99564.94;;;7.82;51.03
66430;BME280;53242;51.694;10.006;2023-04-28T00:56:49;99552.56;;;7.90;50.81
66430;BME280;53242;51.694;10.006;2023-04-28T00:59:13;99552.81;;;7.81;51.17
66430;BME280;53242;51.694;10.006;2023-04-28T01:01:35;99542.31;;;7.81;51.25
66430;BME280;53242;51.694;10.006;2023-04-28T01:03:58;99541.56;;;7.87;51.13
66430;BME280;53242;51.694;10.006;2023-04-28T01:06:21;99546.31;;;7.92;50.78
66430;BME280;53242;51.694;10.006;2023-04-28T01:08:48;99545.84;;;7.88;51.08
66430;BME280;53242;51.694;10.006;2023-04-28T01:11:13;99536.94;;;7.97;50.70
66430;BME280;53242;51.694;10.006;2023-04-28T01:13:53;99538.38;;;8.00;50.64
66430;BME280;53242;51.694;10.006;2023-04-28T01:16:16;99533.84;;;7.94;50.60
66430;BME280;53242;51.694;10.006;2023-04-28T01:18:41;99527.94;;;7.92;50.88
66430;BME280;53242;51.694;10.006;2023-04-28T01:21:06;99526.94;;;7.69;51.30
66430;BME280;53242;51.694;10.006;2023-04-28T01:23:29;99523.38;;;7.85;50.90
66430;BME280;53242;51.694;10.006;2023-04-28T01:25:52;99517.78;;;7.88;51.00
66430;BME280;53242;51.694;10.006;2023-04-28T01:28:14;99525.78;;;7.72;51.29
66430;BME280;53242;51.694;10.006;2023-04-28T01:30:37;99526.97;;;7.84;51.13
66430;BME280;53242;51.694;10.006;2023-04-28T01:33:00;99531.06;;;7.87;51.00
66430;BME280;53242;51.694;10.006;2023-04-28T01:35:23;99511.94;;;7.78;51.11
66430;BME280;53242;51.694;10.006;2023-04-28T01:37:45;99504.56;;;7.73;51.43
66430;BME280;53242;51.694;10.006;2023-04-28T01:40:08;99501.06;;;7.81;50.79
66430;BME280;53242;51.694;10.006;2023-04-28T01:42:32;99505.34;;;7.82;50.92
66430;BME280;53242;51.694;10.006;2023-04-28T01:44:57;99496.88;;;7.72;51.22
66430;BME280;53242;51.694;10.006;2023-04-28T01:47:19;99507.03;;;7.75;50.97
66430;BME280;53242;51.694;10.006;2023-04-28T01:49:42;99509.13;;;7.80;51.12
66430;BME280;53242;51.694;10.006;2023-04-28T01:52:04;99505.63;;;7.64;51.45
66430;BME280;53242;51.694;10.006;2023-04-28T01:54:28;99512.63;;;7.72;51.13
66430;BME280;53242;51.694;10.006;2023-04-28T01:56:50;99511.09;;;7.78;50.98
66430;BME280;53242;51.694;10.006;2023-04-28T01:59:14;99510.31;;;7.77;51.07
66430;BME280;53242;51.694;10.006;2023-04-28T02:01:37;99496.41;;;7.68;51.34
66430;BME280;53242;51.694;10.006;2023-04-28T02:03:59;99501.94;;;7.73;50.98
66430;BME280;53242;51.694;10.006;2023-04-28T02:06:22;99494.53;;;7.77;50.95
66430;BME280;53242;51.694;10.006;2023-04-28T02:08:44;99491.44;;;7.73;50.99
66430;BME280;53242;51.694;10.006;2023-04-28T02:11:08;99489.19;;;7.70;51.26
66430;BME280;53242;51.694;10.006;2023-04-28T02:13:31;99480.56;;;7.77;51.03
66430;BME280;53242;51.694;10.006;2023-04-28T02:15:53;99491.06;;;7.77;51.04
66430;BME280;53242;51.694;10.006;2023-04-28T02:18:17;99491.06;;;7.77;50.91
66430;BME280;53242;51.694;10.006;2023-04-28T02:20:39;99486.88;;;7.67;51.25
66430;BME280;53242;51.694;10.006;2023-04-28T02:23:03;99484.22;;;7.76;50.65
66430;BME280;53242;51.694;10.006;2023-04-28T02:25:28;99478.59;;;7.79;51.44
66430;BME280;53242;51.694;10.006;2023-04-28T02:27:50;99465.81;;;7.76;51.09
66430;BME280;53242;51.694;10.006;2023-04-28T02:30:13;99450.50;;;7.79;50.93
66430;BME280;53242;51.694;10.006;2023-04-28T02:32:35;99456.00;;;7.69;51.22
66430;BME280;53242;51.694;10.006;2023-04-28T02:34:58;99456.47;;;7.73;51.22
66430;BME280;53242;51.694;10.006;2023-04-28T02:37:21;99440.72;;;7.73;51.06
66430;BME280;53242;51.694;10.006;2023-04-28T02:39:45;99433.94;;;7.79;50.99
66430;BME280;53242;51.694;10.006;2023-04-28T02:42:07;99428.75;;;7.70;51.24
66430;BME280;53242;51.694;10.006;2023-04-28T02:44:30;99434.56;;;7.81;50.93
66430;BME280;53242;51.694;10.006;2023-04-28T02:46:52;99432.00;;;7.72;50.93
66430;BME280;53242;51.694;10.006;2023-04-28T02:49:15;99428.22;;;7.75;50.98
66430;BME280;53242;51.694;10.006;2023-04-28T02:51:39;99427.50;;;7.81;50.95
66430;BME280;53242;51.694;10.006;2023-04-28T02:54:01;99434.41;;;7.82;51.08
66430;BME280;53242;51.694;10.006;2023-04-28T02:56:23;99427.69;;;7.80;51.31
66430;BME280;53242;51.694;10.006;2023-04-28T02:58:46;99430.13;;;7.81;50.66
66430;BME280;53242;51.694;10.006;2023-04-28T03:01:08;99420.28;;;7.83;51.04
66430;BME280;53242;51.694;10.006;2023-04-28T03:03:31;99417.63;;;7.83;51.05
66430;BME280;53242;51.694;10.006;2023-04-28T03:05:53;99419.09;;;8.01;50.47
66430;BME280;53242;51.694;10.006;2023-04-28T03:08:17;99412.94;;;7.94;50.81
66430;BME280;53242;51.694;10.006;2023-04-28T03:10:42;99411.22;;;8.01;50.56
66430;BME280;53242;51.694;10.006;2023-04-28T03:13:04;99403.44;;;7.93;50.66
66430;BME280;53242;51.694;10.006;2023-04-28T03:15:27;99409.22;;;7.88;50.88
66430;BME280;53242;51.694;10.006;2023-04-28T03:17:49;99403.06;;;7.96;50.97
66430;BME280;53242;51.694;10.006;2023-04-28T03:20:13;99404.78;;;8.03;50.70
66430;BME280;53242;51.694;10.006;2023-04-28T03:22:35;99406.78;;;8.01;50.60
66430;BME280;53242;51.694;10.006;2023-04-28T03:24:57;99407.06;;;8.06;51.02
66430;BME280;53242;51.694;10.006;2023-04-28T03:27:21;99413.97;;;8.07;50.71
66430;BME280;53242;51.694;10.006;2023-04-28T03:29:44;99393.94;;;8.06;50.97
66430;BME280;53242;51.694;10.006;2023-04-28T03:32:07;99381.25;;;8.10;50.93
66430;BME280;53242;51.694;10.006;2023-04-28T03:34:29;99387.31;;;8.11;50.69
66430;BME280;53242;51.694;10.006;2023-04-28T03:36:52;99384.59;;;8.04;51.10
66430;BME280;53242;51.694;10.006;2023-04-28T03:39:20;99380.22;;;8.11;50.72
66430;BME280;53242;51.694;10.006;2023-04-28T03:41:43;99379.16;;;8.05;51.00
66430;BME280;53242;51.694;10.006;2023-04-28T03:44:31;99378.25;;;8.13;50.66
66430;BME280;53242;51.694;10.006;2023-04-28T03:46:54;99365.09;;;8.13;50.74
66430;BME280;53242;51.694;10.006;2023-04-28T03:49:16;99371.63;;;8.17;50.76
66430;BME280;53242;51.694;10.006;2023-04-28T03:51:39;99369.38;;;8.14;50.81
66430;BME280;53242;51.694;10.006;2023-04-28T03:54:02;99363.19;;;8.07;51.04
66430;BME280;53242;51.694;10.006;2023-04-28T03:56:24;99366.00;;;8.05;51.19
66430;BME280;53242;51.694;10.006;2023-04-28T03:58:47;99363.84;;;8.09;51.00
66430;BME280;53242;51.694;10.006;2023-04-28T04:01:09;99365.47;;;8.10;51.00
66430;BME280;53242;51.694;10.006;2023-04-28T04:03:32;99360.56;;;8.22;50.69
66430;BME280;53242;51.694;10.006;2023-04-28T04:05:55;99361.66;;;8.13;51.06
66430;BME280;53242;51.694;10.006;2023-04-28T04:08:18;99359.03;;;8.13;50.95
66430;BME280;53242;51.694;10.006;2023-04-28T04:10:41;99364.72;;;8.16;51.37
66430;BME280;53242;51.694;10.006;2023-04-28T04:13:03;99359.84;;;8.13;51.09
66430;BME280;53242;51.694;10.006;2023-04-28T04:15:26;99358.22;;;8.12;50.97
66430;BME280;53242;51.694;10.006;2023-04-28T04:17:48;99365.00;;;8.21;51.05
66430;BME280;53242;51.694;10.006;2023-04-28T04:20:11;99362.63;;;8.27;50.76
66430;BME280;53242;51.694;10.006;2023-04-28T04:22:33;99361.47;;;8.14;51.32
66430;BME280;53242;51.694;10.006;2023-04-28T04:24:55;99347.25;;;8.23;50.71
66430;BME280;53242;51.694;10.006;2023-04-28T04:27:18;99356.03;;;8.31;50.62
66430;BME280;53242;51.694;10.006;2023-04-28T04:29:40;99345.88;;;8.28;51.12
66430;BME280;53242;51.694;10.006;2023-04-28T04:32:07;99348.16;;;8.31;50.93
66430;BME280;53242;51.694;10.006;2023-04-28T04:34:30;99346.13;;;8.33;50.87
66430;BME280;53242;51.694;10.006;2023-04-28T04:36:53;99337.91;;;8.36;50.58
66430;BME280;53242;51.694;10.006;2023-04-28T04:39:16;99347.50;;;8.29;50.66
66430;BME280;53242;51.694;10.006;2023-04-28T04:41:38;99342.97;;;8.22;50.97
66430;BME280;53242;51.694;10.006;2023-04-28T04:44:25;99350.94;;;8.29;51.12
66430;BME280;53242;51.694;10.006;2023-04-28T04:46:49;99357.38;;;8.27;51.14
66430;BME280;53242;51.694;10.006;2023-04-28T04:49:13;99348.94;;;8.31;50.67
66430;BME280;53242;51.694;10.006;2023-04-28T04:51:36;99347.84;;;8.40;50.85
66430;BME280;53242;51.694;10.006;2023-04-28T04:53:59;99347.94;;;8.47;50.59
66430;BME280;53242;51.694;10.006;2023-04-28T04:56:22;99342.13;;;8.37;50.88
66430;BME280;53242;51.694;10.006;2023-04-28T04:58:44;99331.19;;;8.48;50.75
66430;BME280;53242;51.694;10.006;2023-04-28T05:01:21;99343.41;;;8.41;50.83
66430;BME280;53242;51.694;10.006;2023-04-28T05:03:43;99343.72;;;8.46;50.73
66430;BME280;53242;51.694;10.006;2023-04-28T05:06:06;99338.16;;;8.41;50.91
66430;BME280;53242;51.694;10.006;2023-04-28T05:08:38;99345.88;;;8.43;51.01
66430;BME280;53242;51.694;10.006;2023-04-28T05:11:01;99343.22;;;8.43;51.25
66430;BME280;53242;51.694;10.006;2023-04-28T05:13:24;99351.22;;;8.49;50.69
66430;BME280;53242;51.694;10.006;2023-04-28T05:15:53;99359.81;;;8.43;50.86
66430;BME280;53242;51.694;10.006;2023-04-28T05:18:34;99358.66;;;8.46;50.77
66430;BME280;53242;51.694;10.006;2023-04-28T05:20:56;99350.94;;;8.44;50.97
66430;BME280;53242;51.694;10.006;2023-04-28T05:23:18;99352.22;;;8.48;50.99
66430;BME280;53242;51.694;10.006;2023-04-28T05:25:41;99357.56;;;8.40;51.00
66430;BME280;53242;51.694;10.006;2023-04-28T05:28:04;99348.97;;;8.46;50.89
66430;BME280;53242;51.694;10.006;2023-04-28T05:30:28;99343.41;;;8.41;51.14
66430;BME280;53242;51.694;10.006;2023-04-28T05:32:52;99337.78;;;8.44;51.28
66430;BME280;53242;51.694;10.006;2023-04-28T05:35:15;99334.00;;;8.47;50.97
66430;BME280;53242;51.694;10.006;2023-04-28T05:37:37;99337.34;;;8.55;50.86
66430;BME280;53242;51.694;10.006;2023-04-28T05:40:00;99335.00;;;8.46;51.21
66430;BME280;53242;51.694;10.006;2023-04-28T05:42:22;99333.72;;;8.57;51.17
66430;BME280;53242;51.694;10.006;2023-04-28T05:44:45;99337.88;;;8.51;51.26
66430;BME280;53242;51.694;10.006;2023-04-28T05:47:07;99333.19;;;8.46;51.53
66430;BME280;53242;51.694;10.006;2023-04-28T05:49:30;99336.09;;;8.51;51.66
66430;BME280;53242;51.694;10.006;2023-04-28T05:51:52;99338.97;;;8.57;51.50
66430;BME280;53242;51.694;10.006;2023-04-28T05:54:15;99336.34;;;8.57;51.53
66430;BME280;53242;51.694;10.006;2023-04-28T05:56:41;99334.72;;;8.55;52.09
66430;BME280;53242;51.694;10.006;2023-04-28T05:59:04;99330.91;;;8.58;51.68
66430;BME280;53242;51.694;10.006;2023-04-28T06:01:27;99329.78;;;8.67;51.66
66430;BME280;53242;51.694;10.006;2023-04-28T06:03:49;99332.66;;;8.72;51.65
66430;BME280;53242;51.694;10.006;2023-04-28T06:06:12;99337.38;;;8.77;51.57
66430;BME280;53242;51.694;10.006;2023-04-28T06:08:35;99334.38;;;8.80;51.67
66430;BME280;53242;51.694;10.006;2023-04-28T06:10:59;99332.91;;;8.78;51.52
66430;BME280;53242;51.694;10.006;2023-04-28T06:13:22;99333.88;;;8.92;51.49
66430;BME280;53242;51.694;10.006;2023-04-28T06:15:44;99323.44;;;8.83;51.42
66430;BME280;53242;51.694;10.006;2023-04-28T06:18:07;99319.47;;;8.87;51.47
66430;BME280;53242;51.694;10.006;2023-04-28T06:20:30;99295.00;;;8.94;51.61
66430;BME280;53242;51.694;10.006;2023-04-28T06:22:53;99290.38;;;8.96;51.63
66430;BME280;53242;51.694;10.006;2023-04-28T06:25:15;99292.22;;;8.95;51.34
66430;BME280;53242;51.694;10.006;2023-04-28T06:27:40;99296.69;;;9.01;51.92
66430;BME280;53242;51.694;10.006;2023-04-28T06:30:03;99311.19;;;9.12;51.45
66430;BME280;53242;51.694;10.006;2023-04-28T06:32:26;99315.94;;;9.24;51.63
66430;BME280;53242;51.694;10.006;2023-04-28T06:34:48;99313.50;;;9.50;51.42
66430;BME280;53242;51.694;10.006;2023-04-28T06:37:10;99309.78;;;9.38;51.32
66430;BME280;53242;51.694;10.006;2023-04-28T06:39:33;99311.41;;;9.39;51.36
66430;BME280;53242;51.694;10.006;2023-04-28T06:41:55;99306.91;;;9.33;51.38
66430;BME280;53242;51.694;10.006;2023-04-28T06:44:21;99307.25;;;9.30;51.29
66430;BME280;53242;51.694;10.006;2023-04-28T06:46:44;99305.09;;;9.40;51.66
66430;BME280;53242;51.694;10.006;2023-04-28T06:49:06;99304.03;;;9.28;51.73
66430;BME280;53242;51.694;10.006;2023-04-28T06:51:30;99290.94;;;9.41;51.44
66430;BME280;53242;51.694;10.006;2023-04-28T06:53:54;99293.34;;;9.36;51.91
66430;BME280;53242;51.694;10.006;2023-04-28T06:56:16;99294.44;;;9.48;51.32
66430;BME280;53242;51.694;10.006;2023-04-28T06:58:38;99296.97;;;9.35;51.60
66430;BME280;53242;51.694;10.006;2023-04-28T07:01:01;99286.44;;;9.35;51.64
66430;BME280;53242;51.694;10.006;2023-04-28T07:03:25;99283.56;;;9.30;51.87
66430;BME280;53242;51.694;10.006;2023-04-28T07:05:48;99295.25;;;9.49;52.00
66430;BME280;53242;51.694;10.006;2023-04-28T07:08:11;99280.06;;;9.51;51.78
66430;BME280;53242;51.694;10.006;2023-04-28T07:10:33;99283.25;;;9.75;51.38
66430;BME280;53242;51.694;10.006;2023-04-28T07:12:55;99292.34;;;9.37;52.23
66430;BME280;53242;51.694;10.006;2023-04-28T07:15:18;99286.63;;;9.62;51.80
66430;BME280;53242;51.694;10.006;2023-04-28T07:17:40;99292.19;;;9.45;52.24
66430;BME280;53242;51.694;10.006;2023-04-28T07:20:04;99296.72;;;9.30;52.29
66430;BME280;53242;51.694;10.006;2023-04-28T07:22:26;99296.44;;;9.46;52.33
66430;BME280;53242;51.694;10.006;2023-04-28T07:24:48;99289.53;;;9.45;52.33
66430;BME280;53242;51.694;10.006;2023-04-28T07:27:11;99290.69;;;9.64;52.17
66430;BME280;53242;51.694;10.006;2023-04-28T07:29:33;99283.97;;;9.62;52.51
66430;BME280;53242;51.694;10.006;2023-04-28T07:31:56;99289.25;;;9.62;52.67
66430;BME280;53242;51.694;10.006;2023-04-28T07:34:18;99287.69;;;9.67;52.50
66430;BME280;53242;51.694;10.006;2023-04-28T07:36:42;99279.78;;;9.67;53.09
66430;BME280;53242;51.694;10.006;2023-04-28T07:39:04;99282.75;;;9.58;53.85
66430;BME280;53242;51.694;10.006;2023-04-28T07:41:26;99287.22;;;9.57;53.69
66430;BME280;53242;51.694;10.006;2023-04-28T07:43:50;99283.84;;;9.70;54.32
66430;BME280;53242;51.694;10.006;2023-04-28T07:46:12;99289.75;;;9.79;54.47
66430;BME280;53242;51.694;10.006;2023-04-28T07:48:35;99289.34;;;9.75;54.82
66430;BME280;53242;51.694;10.006;2023-04-28T07:50:57;99288.88;;;9.65;54.96
66430;BME280;53242;51.694;10.006;2023-04-28T07:53:19;99282.91;;;9.84;54.23
66430;BME280;53242;51.694;10.006;2023-04-28T07:55:42;99276.63;;;9.85;54.69
66430;BME280;53242;51.694;10.006;2023-04-28T07:58:05;99273.28;;;10.05;54.71
66430;BME280;53242;51.694;10.006;2023-04-28T08:00:28;99267.63;;;10.15;55.02
66430;BME280;53242;51.694;10.006;2023-04-28T08:02:50;99261.41;;;9.81;55.38
66430;BME280;53242;51.694;10.006;2023-04-28T08:05:13;99267.31;;;9.90;56.33
66430;BME280;53242;51.694;10.006;2023-04-28T08:07:35;99258.59;;;9.89;56.10
66430;BME280;53242;51.694;10.006;2023-04-28T08:09:58;99256.63;;;9.63;56.41
66430;BME280;53242;51.694;10.006;2023-04-28T08:12:20;99251.03;;;9.73;56.68
66430;BME280;53242;51.694;10.006;2023-04-28T08:14:44;99236.03;;;9.80;56.71
66430;BME280;53242;51.694;10.006;2023-04-28T08:17:06;99236.06;;;9.86;56.87
66430;BME280;53242;51.694;10.006;2023-04-28T08:19:29;99224.31;;;9.89;56.52
66430;BME280;53242;51.694;10.006;2023-04-28T08:21:51;99238.97;;;9.98;56.88
66430;BME280;53242;51.694;10.006;2023-04-28T08:24:14;99246.88;;;9.98;56.43
66430;BME280;53242;51.694;10.006;2023-04-28T08:26:37;99248.03;;;9.89;56.80
66430;BME280;53242;51.694;10.006;2023-04-28T08:28:59;99247.47;;;9.94;56.72
66430;BME280;53242;51.694;10.006;2023-04-28T08:31:22;99255.47;;;10.14;56.11
66430;BME280;53242;51.694;10.006;2023-04-28T08:33:44;99258.13;;;9.79;56.73
66430;BME280;53242;51.694;10.006;2023-04-28T08:36:09;99253.66;;;10.28;55.75
66430;BME280;53242;51.694;10.006;2023-04-28T08:38:36;99254.75;;;10.40;55.29
66430;BME280;53242;51.694;10.006;2023-04-28T08:40:59;99259.41;;;10.38;56.04
66430;BME280;53242;51.694;10.006;2023-04-28T08:43:21;99255.97;;;10.44;55.67
66430;BME280;53242;51.694;10.006;2023-04-28T08:45:43;99260.03;;;10.53;56.36
66430;BME280;53242;51.694;10.006;2023-04-28T08:48:19;99252.38;;;10.65;56.34
66430;BME280;53242;51.694;10.006;2023-04-28T08:50:43;99255.03;;;10.65;55.72
66430;BME280;53242;51.694;10.006;2023-04-28T08:53:11;99250.88;;;10.36;56.43
66430;BME280;53242;51.694;10.006;2023-04-28T08:55:35;99249.31;;;10.62;56.10
66430;BME280;53242;51.694;10.006;2023-04-28T08:57:57;99241.63;;;10.60;55.66
66430;BME280;53242;51.694;10.006;2023-04-28T09:00:20;99240.13;;;10.38;57.06
66430;BME280;53242;51.694;10.006;2023-04-28T09:02:42;99239.13;;;10.45;57.07
66430;BME280;53242;51.694;10.006;2023-04-28T09:05:12;99239.41;;;10.77;57.06
66430;BME280;53242;51.694;10.006;2023-04-28T09:07:35;99237.16;;;10.74;56.33
66430;BME280;53242;51.694;10.006;2023-04-28T09:10:21;99240.19;;;10.64;57.08
66430;BME280;53242;51.694;10.006;2023-04-28T09:12:44;99235.69;;;10.45;57.56
66430;BME280;53242;51.694;10.006;2023-04-28T09:15:07;99232.44;;;10.43;57.43
66430;BME280;53242;51.694;10.006;2023-04-28T09:17:30;99232.84;;;10.46;57.33
66430;BME280;53242;51.694;10.006;2023-04-28T09:19:53;99234.53;;;10.81;56.67
66430;BME280;53242;51.694;10.006;2023-04-28T09:22:15;99236.56;;;10.92;56.35
66430;BME280;53242;51.694;10.006;2023-04-28T09:24:39;99228.25;;;10.82;56.92
66430;BME280;53242;51.694;10.006;2023-04-28T09:27:03;99230.88;;;11.15;56.39
66430;BME280;53242;51.694;10.006;2023-04-28T09:29:26;99226.38;;;11.23;56.20
66430;BME280;53242;51.694;10.006;2023-04-28T09:31:48;99226.16;;;11.44;55.56
66430;BME280;53242;51.694;10.006;2023-04-28T09:34:10;99223.75;;;11.36;55.85
66430;BME280;53242;51.694;10.006;2023-04-28T09:36:33;99217.22;;;11.45;55.81
66430;BME280;53242;51.694;10.006;2023-04-28T09:38:56;99210.94;;;11.26;56.15
66430;BME280;53242;51.694;10.006;2023-04-28T09:41:20;99204.81;;;11.39;55.95
66430;BME280;53242;51.694;10.006;2023-04-28T09:43:42;99203.56;;;11.48;56.44
66430;BME280;53242;51.694;10.006;2023-04-28T09:46:05;99201.56;;;11.30;57.31
66430;BME280;53242;51.694;10.006;2023-04-28T09:48:33;99192.22;;;11.41;56.91
66430;BME280;53242;51.694;10.006;2023-04-28T09:50:57;99199.97;;;11.36;57.01
66430;BME280;53242;51.694;10.006;2023-04-28T09:53:25;99192.81;;;11.43;57.08
66430;BME280;53242;51.694;10.006;2023-04-28T09:55:48;99189.91;;;11.65;56.84
66430;BME280;53242;51.694;10.006;2023-04-28T09:58:13;99197.34;;;11.88;55.95
66430;BME280;53242;51.694;10.006;2023-04-28T10:00:37;99190.63;;;11.85;56.04
66430;BME280;53242;51.694;10.006;2023-04-28T10:03:00;99186.31;;;11.91;56.11
66430;BME280;53242;51.694;10.006;2023-04-28T10:05:23;99187.50;;;12.09;55.90
66430;BME280;53242;51.694;10.006;2023-04-28T10:07:45;99181.84;;;11.98;56.12
66430;BME280;53242;51.694;10.006;2023-04-28T10:10:08;99182.22;;;12.09;56.29
66430;BME280;53242;51.694;10.006;2023-04-28T10:12:31;99176.78;;;11.97;56.66
66430;BME280;53242;51.694;10.006;2023-04-28T10:14:54;99187.50;;;12.09;56.86
66430;BME280;53242;51.694;10.006;2023-04-28T10:17:18;99196.72;;;11.86;57.37
66430;BME280;53242;51.694;10.006;2023-04-28T10:19:43;99194.88;;;12.00;57.52
66430;BME280;53242;51.694;10.006;2023-04-28T10:22:18;99194.34;;;11.71;59.24
66430;BME280;53242;51.694;10.006;2023-04-28T10:27:45;99184.28;;;11.48;59.39
66430;BME280;53242;51.694;10.006;2023-04-28T10:30:19;99176.38;;;11.41;63.80
66430;BME280;53242;51.694;10.006;2023-04-28T10:32:42;99173.34;;;11.24;63.37
66430;BME280;53242;51.694;10.006;2023-04-28T10:38:05;99171.13;;;11.01;67.36
66430;BME280;53242;51.694;10.006;2023-04-28T10:40:35;99165.06;;;10.94;67.91
66430;BME280;53242;51.694;10.006;2023-04-28T10:42:57;99167.72;;;10.94;68.14
66430;BME280;53242;51.694;10.006;2023-04-28T10:48:10;99174.41;;;10.69;68.65
66430;BME280;53242;51.694;10.006;2023-04-28T10:50:32;99167.91;;;10.85;69.10
66430;BME280;53242;51.694;10.006;2023-04-28T10:52:58;99172.41;;;10.72;70.48
66430;BME280;53242;51.694;10.006;2023-04-28T11:00:39;99156.16;;;10.75;71.66
66430;BME280;53242;51.694;10.006;2023-04-28T11:03:01;99156.94;;;10.95;70.62
66430;BME280;53242;51.694;10.006;2023-04-28T11:05:23;99160.78;;;11.13;68.98
66430;BME280;53242;51.694;10.006;2023-04-28T11:11:13;99153.03;;;11.25;69.84
66430;BME280;53242;51.694;10.006;2023-04-28T11:13:36;99158.50;;;11.30;67.75
66430;BME280;53242;51.694;10.006;2023-04-28T11:16:02;99165.66;;;10.96;69.20
66430;BME280;53242;51.694;10.006;2023-04-28T11:18:27;99161.28;;;11.48;67.81
66430;BME280;53242;51.694;10.006;2023-04-28T11:20:54;99154.81;;;11.44;68.16
66430;BME280;53242;51.694;10.006;2023-04-28T11:23:19;99149.19;;;11.73;67.47
66430;BME280;53242;51.694;10.006;2023-04-28T11:25:54;99147.13;;;11.81;67.34
66430;BME280;53242;51.694;10.006;2023-04-28T11:28:16;99137.13;;;11.90;66.72
66430;BME280;53242;51.694;10.006;2023-04-28T11:30:39;99141.75;;;12.08;66.97
66430;BME280;53242;51.694;10.006;2023-04-28T11:33:02;99139.50;;;12.05;66.61
66430;BME280;53242;51.694;10.006;2023-04-28T11:35:24;99135.91;;;11.93;66.83
66430;BME280;53242;51.694;10.006;2023-04-28T11:38:00;99135.91;;;11.93;67.58
66430;BME280;53242;51.694;10.006;2023-04-28T11:40:25;99143.56;;;12.08;66.86
66430;BME280;53242;51.694;10.006;2023-04-28T11:42:47;99133.47;;;12.23;67.02
66430;BME280;53242;51.694;10.006;2023-04-28T11:45:11;99124.34;;;12.51;67.45
66430;BME280;53242;51.694;10.006;2023-04-28T11:47:34;99115.34;;;12.77;65.84
66430;BME280;53242;51.694;10.006;2023-04-28T11:49:56;99114.47;;;12.58;66.36
66430;BME280;53242;51.694;10.006;2023-04-28T11:52:19;99109.56;;;12.62;66.46
66430;BME280;53242;51.694;10.006;2023-04-28T11:54:42;99115.72;;;12.56;67.62
66430;BME280;53242;51.694;10.006;2023-04-28T11:57:04;99129.69;;;12.44;67.71
66430;BME280;53242;51.694;10.006;2023-04-28T11:59:32;99120.75;;;12.39;67.14
66430;BME280;53242;51.694;10.006;2023-04-28T12:01:57;99120.63;;;12.27;66.63
66430;BME280;53242;51.694;10.006;2023-04-28T12:04:27;99114.28;;;12.60;65.88
66430;BME280;53242;51.694;10.006;2023-04-28T12:06:58;99108.72;;;12.68;67.45
66430;BME280;53242;51.694;10.006;2023-04-28T12:09:20;99113.97;;;12.49;66.26
66430;BME280;53242;51.694;10.006;2023-04-28T12:11:56;99111.19;;;12.63;68.89
66430;BME280;53242;51.694;10.006;2023-04-28T12:14:19;99123.81;;;12.61;67.28
66430;BME280;53242;51.694;10.006;2023-04-28T12:16:43;99122.31;;;12.72;67.35
66430;BME280;53242;51.694;10.006;2023-04-28T12:19:05;99117.34;;;12.82;66.93
66430;BME280;53242;51.694;10.006;2023-04-28T12:21:31;99120.53;;;12.91;66.75
66430;BME280;53242;51.694;10.006;2023-04-28T12:23:54;99114.97;;;12.74;66.94
66430;BME280;53242;51.694;10.006;2023-04-28T12:26:23;99109.78;;;12.86;67.98
66430;BME280;53242;51.694;10.006;2023-04-28T12:28:46;99100.94;;;12.92;66.48
66430;BME280;53242;51.694;10.006;2023-04-28T12:31:09;99098.88;;;12.94;66.41
66430;BME280;53242;51.694;10.006;2023-04-28T12:33:32;99096.47;;;12.92;66.04
66430;BME280;53242;51.694;10.006;2023-04-28T12:36:00;99095.94;;;13.02;66.24
66430;BME280;53242;51.694;10.006;2023-04-28T12:38:23;99090.63;;;12.83;66.96
66430;BME280;53242;51.694;10.006;2023-04-28T12:40:46;99092.41;;;12.90;66.55
66430;BME280;53242;51.694;10.006;2023-04-28T12:43:08;99082.53;;;12.97;66.61
66430;BME280;53242;51.694;10.006;2023-04-28T12:45:30;99085.94;;;12.86;66.65
66430;BME280;53242;51.694;10.006;2023-04-28T12:47:54;99081.38;;;12.74;66.85
66430;BME280;53242;51.694;10.006;2023-04-28T12:50:18;99091.41;;;12.91;66.02
66430;BME280;53242;51.694;10.006;2023-04-28T12:52:40;99086.09;;;13.09;65.48
66430;BME280;53242;51.694;10.006;2023-04-28T12:55:03;99081.53;;;13.16;65.84
66430;BME280;53242;51.694;10.006;2023-04-28T12:57:26;99069.53;;;13.14;66.07